createdAt,value
2022-10-15T00:04:27.056Z,4.70
2022-10-15T00:11:16.112Z,4.57
2022-10-15T00:18:04.343Z,3.75
2022-10-15T00:24:49.836Z,4.22
2022-10-15T00:31:36.105Z,4.07
2022-10-15T00:38:24.110Z,4.30
2022-10-15T00:45:15.240Z,4.75
2022-10-15T00:52:05.094Z,4.70
2022-10-15T00:58:56.135Z,4.82
2022-10-15T01:05:43.193Z,4.82
2022-10-15T01:12:49.773Z,5.38
2022-10-15T01:20:05.890Z,5.47
2022-10-15T01:27:34.487Z,5.75
2022-10-15T01:34:29.182Z,5.88
2022-10-15T01:41:21.593Z,6.22
2022-10-15T01:48:14.691Z,6.60
2022-10-15T01:55:04.792Z,6.55
2022-10-15T02:01:50.546Z,6.32
2022-10-15T02:08:46.036Z,6.17
2022-10-15T02:15:43.080Z,6.80
2022-10-15T02:22:35.250Z,6.45
2022-10-15T02:29:25.529Z,6.72
2022-10-15T02:36:14.238Z,7.20
2022-10-15T02:42:59.875Z,6.90
2022-10-15T03:03:36.265Z,8.02
2022-10-15T03:10:21.934Z,7.30
2022-10-15T03:17:07.387Z,8.23
2022-10-15T03:23:55.740Z,8.37
2022-10-15T03:30:42.953Z,8.43
2022-10-15T03:37:29.041Z,8.10
2022-10-15T03:44:17.781Z,8.20
2022-10-15T03:51:12.109Z,7.57
2022-10-15T03:57:59.504Z,7.60
2022-10-15T04:04:48.161Z,8.00
2022-10-15T04:11:33.736Z,7.63
2022-10-15T04:18:22.352Z,7.28
2022-10-15T04:25:14.854Z,6.72
2022-10-15T04:32:04.742Z,6.72
2022-10-15T04:38:50.187Z,6.35
2022-10-15T04:45:47.364Z,5.70
2022-10-15T04:52:37.735Z,5.70
2022-10-15T04:59:27.535Z,5.70
2022-10-15T05:06:36.652Z,4.93
2022-10-15T05:13:38.630Z,4.85
2022-10-15T05:20:24.292Z,5.68
2022-10-15T05:27:12.738Z,6.10
2022-10-15T05:33:59.029Z,6.72
2022-10-15T05:40:52.605Z,7.35
2022-10-15T05:47:44.689Z,7.05
2022-10-15T05:54:33.477Z,7.80
2022-10-15T06:01:21.249Z,6.93
2022-10-15T06:08:12.617Z,7.70
2022-10-15T06:14:58.006Z,7.90
2022-10-15T06:21:43.315Z,8.43
2022-10-15T06:28:31.425Z,7.40
2022-10-15T06:35:17.118Z,7.65
2022-10-15T06:42:02.452Z,7.18
2022-10-15T06:48:59.469Z,6.90
2022-10-15T06:55:44.869Z,6.70
2022-10-15T07:02:30.291Z,6.53
2022-10-15T07:16:08.327Z,6.15
2022-10-15T07:22:54.225Z,6.00
2022-10-15T07:29:42.563Z,5.47
2022-10-15T07:36:29.691Z,5.15
2022-10-15T07:43:16.003Z,5.30
2022-10-15T07:56:49.155Z,4.90
2022-10-15T08:03:35.229Z,4.67
2022-10-15T08:10:23.351Z,4.80
2022-10-15T08:17:09.903Z,5.10
2022-10-15T08:23:55.649Z,5.50
2022-10-15T08:30:54.206Z,4.85
2022-10-15T08:37:39.609Z,5.28
2022-10-15T08:44:30.338Z,5.13
2022-10-15T08:51:22.717Z,5.28
2022-10-15T08:58:17.577Z,5.90
2022-10-15T09:05:08.565Z,4.82
2022-10-15T09:12:15.722Z,5.03
2022-10-15T09:25:58.229Z,4.70
2022-10-15T09:32:54.582Z,5.03
2022-10-15T09:39:57.064Z,4.95
2022-10-15T09:46:48.206Z,5.20
2022-10-15T09:53:51.617Z,4.57
2022-10-15T10:00:58.938Z,6.30
2022-10-15T10:07:48.811Z,7.15
2022-10-15T10:14:43.239Z,6.77
2022-10-15T10:21:34.540Z,7.07
2022-10-15T10:28:28.360Z,6.88
2022-10-15T10:35:27.406Z,5.75
2022-10-15T10:42:30.871Z,5.60
2022-10-15T10:49:16.414Z,5.95
2022-10-15T10:56:08.623Z,5.80
2022-10-15T11:02:55.765Z,6.07
2022-10-15T11:09:57.325Z,5.70
2022-10-15T11:16:55.273Z,5.90
2022-10-15T11:24:06.783Z,4.80
2022-10-15T11:31:09.378Z,4.13
2022-10-15T11:38:24.639Z,4.00
2022-10-15T11:45:48.733Z,3.97
2022-10-15T11:52:50.883Z,4.20
2022-10-15T11:59:48.822Z,4.45
2022-10-15T12:06:39.057Z,3.80
2022-10-15T12:13:36.601Z,3.72
2022-10-15T12:20:26.794Z,3.58
2022-10-15T12:27:23.001Z,3.55
2022-10-15T12:34:08.684Z,3.95
2022-10-15T12:41:06.511Z,4.10
2022-10-15T12:47:54.823Z,3.72
2022-10-15T12:54:43.679Z,3.80
2022-10-15T13:01:54.775Z,3.40
2022-10-15T13:08:40.249Z,3.72
2022-10-15T13:15:29.223Z,3.90
2022-10-15T13:22:28.270Z,4.22
2022-10-15T13:29:20.184Z,3.70
2022-10-15T13:36:10.645Z,3.47
2022-10-15T13:43:06.251Z,3.85
2022-10-15T13:49:51.621Z,3.43
2022-10-15T13:56:37.124Z,3.30
2022-10-15T14:03:27.555Z,4.00
2022-10-15T14:10:13.882Z,3.75
2022-10-15T14:30:39.525Z,3.75
2022-10-15T14:37:43.174Z,3.72
2022-10-15T14:44:46.657Z,3.42
2022-10-15T14:51:32.892Z,4.22
2022-10-15T15:05:24.489Z,3.70
2022-10-15T15:12:13.470Z,4.00
2022-10-15T15:18:59.365Z,4.00
2022-10-15T15:25:47.589Z,3.70
2022-10-15T15:32:33.244Z,3.70
2022-10-15T15:39:18.637Z,4.30
2022-10-15T15:46:06.847Z,4.20
2022-10-15T15:52:52.229Z,4.35
2022-10-15T15:59:37.916Z,4.30
2022-10-15T16:06:25.902Z,4.30
2022-10-15T16:13:11.447Z,4.85
2022-10-15T16:19:56.766Z,4.13
2022-10-15T16:26:44.769Z,4.90
2022-10-15T16:33:30.517Z,4.82
2022-10-15T16:40:17.605Z,4.53
2022-10-15T16:47:05.716Z,4.63
2022-10-15T16:53:52.593Z,4.15
2022-10-15T17:00:38.429Z,4.70
2022-10-15T17:07:26.978Z,4.70
2022-10-15T17:14:16.073Z,4.55
2022-10-15T17:21:02.360Z,4.90
2022-10-15T17:27:50.462Z,4.78
2022-10-15T17:34:36.201Z,4.45
2022-10-15T17:41:24.823Z,4.90
2022-10-15T17:48:12.798Z,4.20
2022-10-15T17:54:58.601Z,4.45
2022-10-15T18:01:57.911Z,4.23
2022-10-15T18:08:47.679Z,4.03
2022-10-15T18:15:35.267Z,4.00
2022-10-15T18:22:23.558Z,4.00
2022-10-15T18:29:11.552Z,3.90
2022-10-15T18:35:57.273Z,3.80
2022-10-15T18:42:46.299Z,4.10
2022-10-15T18:49:43.135Z,4.43
2022-10-15T18:56:28.520Z,4.57
2022-10-15T19:03:14.367Z,4.32
2022-10-15T19:10:02.746Z,4.20
2022-10-15T19:16:49.657Z,4.60
2022-10-15T19:23:35.414Z,3.83
2022-10-15T19:30:23.821Z,4.00
2022-10-15T19:37:09.280Z,5.63
2022-10-15T19:44:07.886Z,4.70
2022-10-15T19:50:55.829Z,4.30
2022-10-15T19:57:41.148Z,4.53
2022-10-15T20:04:26.618Z,4.82
2022-10-15T20:11:15.321Z,4.80
2022-10-15T20:18:00.876Z,4.78
2022-10-15T20:24:46.349Z,4.53
2022-10-15T20:31:35.796Z,5.27
2022-10-15T20:38:21.131Z,4.65
2022-10-15T20:45:07.435Z,4.28
2022-10-15T20:51:56.084Z,5.03
2022-10-15T20:58:41.865Z,4.40
2022-10-15T21:05:27.272Z,4.30
2022-10-15T21:12:15.425Z,4.77
2022-10-15T21:19:00.843Z,4.70
2022-10-15T21:25:46.480Z,4.40
2022-10-15T21:32:34.605Z,4.60
2022-10-15T21:39:20.379Z,5.53
2022-10-15T21:46:10.984Z,5.28
2022-10-15T21:52:58.994Z,4.95
2022-10-15T21:59:44.466Z,4.97
2022-10-15T22:06:32.007Z,4.80
2022-10-15T22:13:20.027Z,5.15
2022-10-15T22:20:05.818Z,4.75
2022-10-15T22:26:54.037Z,5.10
2022-10-15T22:33:43.384Z,4.50
2022-10-15T22:40:28.723Z,4.63
2022-10-15T22:47:14.172Z,4.87
2022-10-15T22:54:03.668Z,4.83
2022-10-15T23:00:49.166Z,4.72
2022-10-15T23:07:34.592Z,4.60
2022-10-15T23:14:22.577Z,4.82
2022-10-15T23:21:11.697Z,4.30
2022-10-15T23:27:57.125Z,4.10
2022-10-15T23:34:45.056Z,4.17
2022-10-15T23:41:31.734Z,4.40
2022-10-15T23:48:17.071Z,4.50
2022-10-15T23:55:05.057Z,4.30
